sensor_id;sensor_type;location;lat;lon;timestamp;temperature;humidity
5154;DHT22;2595;53.584;10.084;2022-08-01T00:00:42;20.20;99.90
5154;DHT22;2595;53.584;10.084;2022-08-01T00:03:08;20.20;99.90
5154;DHT22;2595;53.584;10.084;2022-08-01T00:05:34;20.20;99.90
5154;DHT22;2595;53.584;10.084;2022-08-01T00:07:59;20.20;99.90
5154;DHT22;2595;53.584;10.084;2022-08-01T00:10:25;20.20;99.90
5154;DHT22;2595;53.584;10.084;2022-08-01T00:12:51;20.20;99.90
5154;DHT22;2595;53.584;10.084;2022-08-01T00:15:17;20.20;99.90
5154;DHT22;2595;53.584;10.084;2022-08-01T00:17:43;20.20;99.90
5154;DHT22;2595;53.584;10.084;2022-08-01T00:20:13;20.20;99.90
5154;DHT22;2595;53.584;10.084;2022-08-01T00:22:39;20.20;99.90
5154;DHT22;2595;53.584;10.084;2022-08-01T00:25:05;20.20;99.90
5154;DHT22;2595;53.584;10.084;2022-08-01T00:27:31;20.20;99.90
5154;DHT22;2595;53.584;10.084;2022-08-01T00:29:57;20.20;99.90
5154;DHT22;2595;53.584;10.084;2022-08-01T00:32:23;20.10;99.90
5154;DHT22;2595;53.584;10.084;2022-08-01T00:34:49;20.10;99.90
5154;DHT22;2595;53.584;10.084;2022-08-01T00:37:14;20.10;99.90
5154;DHT22;2595;53.584;10.084;2022-08-01T00:39:40;20.10;99.90
5154;DHT22;2595;53.584;10.084;2022-08-01T00:42:07;20.10;99.90
5154;DHT22;2595;53.584;10.084;2022-08-01T00:44:34;20.00;99.90
5154;DHT22;2595;53.584;10.084;2022-08-01T00:47:00;20.10;99.90
5154;DHT22;2595;53.584;10.084;2022-08-01T00:49:27;20.00;99.90
5154;DHT22;2595;53.584;10.084;2022-08-01T00:51:52;20.00;99.90
5154;DHT22;2595;53.584;10.084;2022-08-01T00:54:18;20.00;99.90
5154;DHT22;2595;53.584;10.084;2022-08-01T00:56:44;20.00;99.90
5154;DHT22;2595;53.584;10.084;2022-08-01T00:59:11;20.00;99.90
5154;DHT22;2595;53.584;10.084;2022-08-01T01:01:37;20.00;99.90
5154;DHT22;2595;53.584;10.084;2022-08-01T01:04:03;20.00;99.90
5154;DHT22;2595;53.584;10.084;2022-08-01T01:06:44;20.00;99.90
5154;DHT22;2595;53.584;10.084;2022-08-01T01:09:38;20.00;99.90
5154;DHT22;2595;53.584;10.084;2022-08-01T01:15:02;20.00;99.90
5154;DHT22;2595;53.584;10.084;2022-08-01T01:20:13;20.00;99.90
5154;DHT22;2595;53.584;10.084;2022-08-01T01:26:20;20.00;99.90
5154;DHT22;2595;53.584;10.084;2022-08-01T01:28:56;20.00;99.90
5154;DHT22;2595;53.584;10.084;2022-08-01T01:31:24;20.00;99.90
5154;DHT22;2595;53.584;10.084;2022-08-01T01:33:51;20.00;99.90
5154;DHT22;2595;53.584;10.084;2022-08-01T01:36:19;20.00;99.90
5154;DHT22;2595;53.584;10.084;2022-08-01T01:38:46;20.00;99.90
5154;DHT22;2595;53.584;10.084;2022-08-01T01:41:16;20.00;99.90
5154;DHT22;2595;53.584;10.084;2022-08-01T01:43:43;19.90;99.90
5154;DHT22;2595;53.584;10.084;2022-08-01T01:46:12;19.90;99.90
5154;DHT22;2595;53.584;10.084;2022-08-01T01:48:38;19.90;99.90
5154;DHT22;2595;53.584;10.084;2022-08-01T01:51:05;19.90;99.90
5154;DHT22;2595;53.584;10.084;2022-08-01T01:53:33;19.90;99.90
5154;DHT22;2595;53.584;10.084;2022-08-01T01:56:01;19.90;99.90
5154;DHT22;2595;53.584;10.084;2022-08-01T01:58:27;19.80;99.90
5154;DHT22;2595;53.584;10.084;2022-08-01T02:00:56;19.80;99.90
5154;DHT22;2595;53.584;10.084;2022-08-01T02:03:23;19.90;99.90
5154;DHT22;2595;53.584;10.084;2022-08-01T02:05:51;19.90;99.90
5154;DHT22;2595;53.584;10.084;2022-08-01T02:08:20;19.90;99.90
5154;DHT22;2595;53.584;10.084;2022-08-01T02:10:46;19.90;99.90
5154;DHT22;2595;53.584;10.084;2022-08-01T02:13:33;19.90;99.90
5154;DHT22;2595;53.584;10.084;2022-08-01T02:16:00;19.90;99.90
5154;DHT22;2595;53.584;10.084;2022-08-01T02:18:26;19.80;99.90
5154;DHT22;2595;53.584;10.084;2022-08-01T02:20:53;19.80;99.90
5154;DHT22;2595;53.584;10.084;2022-08-01T02:23:20;19.80;99.90
5154;DHT22;2595;53.584;10.084;2022-08-01T02:25:50;19.80;99.90
5154;DHT22;2595;53.584;10.084;2022-08-01T02:28:21;19.80;99.90
5154;DHT22;2595;53.584;10.084;2022-08-01T02:30:54;19.80;99.90
5154;DHT22;2595;53.584;10.084;2022-08-01T02:33:24;19.80;99.90
5154;DHT22;2595;53.584;10.084;2022-08-01T02:35:56;19.80;99.90
5154;DHT22;2595;53.584;10.084;2022-08-01T02:38:25;19.80;99.90
5154;DHT22;2595;53.584;10.084;2022-08-01T02:40:54;19.70;99.90
5154;DHT22;2595;53.584;10.084;2022-08-01T02:43:25;19.70;99.90
5154;DHT22;2595;53.584;10.084;2022-08-01T02:45:53;19.70;99.90
5154;DHT22;2595;53.584;10.084;2022-08-01T02:48:21;19.70;99.90
5154;DHT22;2595;53.584;10.084;2022-08-01T02:50:49;19.70;99.90
5154;DHT22;2595;53.584;10.084;2022-08-01T02:53:19;19.60;99.90
5154;DHT22;2595;53.584;10.084;2022-08-01T02:55:46;19.60;99.90
5154;DHT22;2595;53.584;10.084;2022-08-01T02:58:15;19.70;99.90
5154;DHT22;2595;53.584;10.084;2022-08-01T03:00:43;19.70;99.90
5154;DHT22;2595;53.584;10.084;2022-08-01T03:03:12;19.60;99.90
5154;DHT22;2595;53.584;10.084;2022-08-01T03:05:38;19.60;99.90
5154;DHT22;2595;53.584;10.084;2022-08-01T03:08:08;19.60;99.90
5154;DHT22;2595;53.584;10.084;2022-08-01T03:10:36;19.60;99.90
5154;DHT22;2595;53.584;10.084;2022-08-01T03:13:04;19.60;99.90
5154;DHT22;2595;53.584;10.084;2022-08-01T03:15:32;19.70;99.90
5154;DHT22;2595;53.584;10.084;2022-08-01T03:17:59;19.60;99.90
5154;DHT22;2595;53.584;10.084;2022-08-01T03:20:27;19.60;99.90
5154;DHT22;2595;53.584;10.084;2022-08-01T03:22:54;19.60;99.90
5154;DHT22;2595;53.584;10.084;2022-08-01T03:25:21;19.60;99.90
5154;DHT22;2595;53.584;10.084;2022-08-01T03:27:53;19.60;99.90
5154;DHT22;2595;53.584;10.084;2022-08-01T03:30:21;19.60;99.90
5154;DHT22;2595;53.584;10.084;2022-08-01T03:32:47;19.60;99.90
5154;DHT22;2595;53.584;10.084;2022-08-01T03:35:13;19.60;99.90
5154;DHT22;2595;53.584;10.084;2022-08-01T03:37:44;19.60;99.90
5154;DHT22;2595;53.584;10.084;2022-08-01T03:40:20;19.60;99.90
5154;DHT22;2595;53.584;10.084;2022-08-01T03:42:50;19.60;99.90
5154;DHT22;2595;53.584;10.084;2022-08-01T03:45:27;19.60;99.90
5154;DHT22;2595;53.584;10.084;2022-08-01T03:48:00;19.60;99.90
5154;DHT22;2595;53.584;10.084;2022-08-01T03:50:28;19.50;99.90
5154;DHT22;2595;53.584;10.084;2022-08-01T03:52:54;19.50;99.90
5154;DHT22;2595;53.584;10.084;2022-08-01T03:55:23;19.50;99.90
5154;DHT22;2595;53.584;10.084;2022-08-01T03:57:50;19.60;99.90
5154;DHT22;2595;53.584;10.084;2022-08-01T04:00:17;19.60;99.90
5154;DHT22;2595;53.584;10.084;2022-08-01T04:02:48;19.50;99.90
5154;DHT22;2595;53.584;10.084;2022-08-01T04:05:15;19.60;99.90
5154;DHT22;2595;53.584;10.084;2022-08-01T04:07:46;19.60;99.90
5154;DHT22;2595;53.584;10.084;2022-08-01T04:10:12;19.50;99.90
5154;DHT22;2595;53.584;10.084;2022-08-01T04:12:37;19.50;99.90
5154;DHT22;2595;53.584;10.084;2022-08-01T04:15:04;19.50;99.90
5154;DHT22;2595;53.584;10.084;2022-08-01T04:17:30;19.60;99.90
5154;DHT22;2595;53.584;10.084;2022-08-01T04:19:56;19.60;99.90
5154;DHT22;2595;53.584;10.084;2022-08-01T04:22:21;19.60;99.90
5154;DHT22;2595;53.584;10.084;2022-08-01T04:24:50;19.60;99.90
5154;DHT22;2595;53.584;10.084;2022-08-01T04:27:23;19.60;99.90
5154;DHT22;2595;53.584;10.084;2022-08-01T04:29:51;19.60;99.90
5154;DHT22;2595;53.584;10.084;2022-08-01T04:32:19;19.60;99.90
5154;DHT22;2595;53.584;10.084;2022-08-01T04:34:46;19.60;99.90
5154;DHT22;2595;53.584;10.084;2022-08-01T04:37:14;19.60;99.90
5154;DHT22;2595;53.584;10.084;2022-08-01T04:39:42;19.60;99.90
5154;DHT22;2595;53.584;10.084;2022-08-01T04:42:08;19.60;99.90
5154;DHT22;2595;53.584;10.084;2022-08-01T04:44:36;19.60;99.90
5154;DHT22;2595;53.584;10.084;2022-08-01T04:47:03;19.60;99.90
5154;DHT22;2595;53.584;10.084;2022-08-01T04:49:34;19.60;99.90
5154;DHT22;2595;53.584;10.084;2022-08-01T04:52:00;19.60;99.90
5154;DHT22;2595;53.584;10.084;2022-08-01T04:54:34;19.60;99.90
5154;DHT22;2595;53.584;10.084;2022-08-01T04:57:03;19.60;99.90
5154;DHT22;2595;53.584;10.084;2022-08-01T04:59:29;19.60;99.90
5154;DHT22;2595;53.584;10.084;2022-08-01T05:02:17;19.60;99.90
5154;DHT22;2595;53.584;10.084;2022-08-01T05:04:44;19.60;99.90
5154;DHT22;2595;53.584;10.084;2022-08-01T05:07:11;19.60;99.90
5154;DHT22;2595;53.584;10.084;2022-08-01T05:09:38;19.60;99.90
5154;DHT22;2595;53.584;10.084;2022-08-01T05:12:05;19.60;99.90
5154;DHT22;2595;53.584;10.084;2022-08-01T05:14:32;19.50;99.90
5154;DHT22;2595;53.584;10.084;2022-08-01T05:16:58;19.50;99.90
5154;DHT22;2595;53.584;10.084;2022-08-01T05:19:25;19.50;99.90
5154;DHT22;2595;53.584;10.084;2022-08-01T05:21:52;19.50;99.90
5154;DHT22;2595;53.584;10.084;2022-08-01T05:24:18;19.50;99.90
5154;DHT22;2595;53.584;10.084;2022-08-01T05:26:43;19.40;99.90
5154;DHT22;2595;53.584;10.084;2022-08-01T05:29:09;19.40;99.90
5154;DHT22;2595;53.584;10.084;2022-08-01T05:31:35;19.40;99.90
5154;DHT22;2595;53.584;10.084;2022-08-01T05:34:01;19.40;99.90
5154;DHT22;2595;53.584;10.084;2022-08-01T05:36:27;19.30;99.90
5154;DHT22;2595;53.584;10.084;2022-08-01T05:38:53;19.30;99.90
5154;DHT22;2595;53.584;10.084;2022-08-01T05:41:18;19.30;99.90
5154;DHT22;2595;53.584;10.084;2022-08-01T05:43:44;19.30;99.90
5154;DHT22;2595;53.584;10.084;2022-08-01T05:46:10;19.30;99.90
5154;DHT22;2595;53.584;10.084;2022-08-01T05:48:35;19.30;99.90
5154;DHT22;2595;53.584;10.084;2022-08-01T05:51:01;19.30;99.90
5154;DHT22;2595;53.584;10.084;2022-08-01T05:53:27;19.30;99.90
5154;DHT22;2595;53.584;10.084;2022-08-01T05:55:53;19.30;99.90
5154;DHT22;2595;53.584;10.084;2022-08-01T05:58:18;19.20;99.90
5154;DHT22;2595;53.584;10.084;2022-08-01T06:00:44;19.20;99.90
5154;DHT22;2595;53.584;10.084;2022-08-01T06:03:09;19.30;99.90
5154;DHT22;2595;53.584;10.084;2022-08-01T06:05:36;19.30;99.90
5154;DHT22;2595;53.584;10.084;2022-08-01T06:08:02;19.30;99.90
5154;DHT22;2595;53.584;10.084;2022-08-01T06:10:28;19.30;99.90
5154;DHT22;2595;53.584;10.084;2022-08-01T06:12:54;19.30;99.90
5154;DHT22;2595;53.584;10.084;2022-08-01T06:15:20;19.30;99.90
5154;DHT22;2595;53.584;10.084;2022-08-01T06:17:45;19.30;99.90
5154;DHT22;2595;53.584;10.084;2022-08-01T06:20:11;19.30;99.90
5154;DHT22;2595;53.584;10.084;2022-08-01T06:22:36;19.30;99.90
5154;DHT22;2595;53.584;10.084;2022-08-01T06:25:02;19.40;99.90
5154;DHT22;2595;53.584;10.084;2022-08-01T06:27:28;19.40;99.90
5154;DHT22;2595;53.584;10.084;2022-08-01T06:29:54;19.40;99.90
5154;DHT22;2595;53.584;10.084;2022-08-01T06:32:20;19.40;99.90
5154;DHT22;2595;53.584;10.084;2022-08-01T06:34:48;19.40;99.90
5154;DHT22;2595;53.584;10.084;2022-08-01T06:37:14;19.50;99.90
5154;DHT22;2595;53.584;10.084;2022-08-01T06:39:40;19.50;99.90
5154;DHT22;2595;53.584;10.084;2022-08-01T06:42:06;19.50;99.90
5154;DHT22;2595;53.584;10.084;2022-08-01T06:44:31;19.40;99.90
5154;DHT22;2595;53.584;10.084;2022-08-01T06:46:57;19.40;99.90
5154;DHT22;2595;53.584;10.084;2022-08-01T06:49:24;19.40;99.90
5154;DHT22;2595;53.584;10.084;2022-08-01T06:51:50;19.40;99.90
5154;DHT22;2595;53.584;10.084;2022-08-01T06:54:15;19.40;99.90
5154;DHT22;2595;53.584;10.084;2022-08-01T06:56:41;19.40;99.90
5154;DHT22;2595;53.584;10.084;2022-08-01T06:59:07;19.40;99.90
5154;DHT22;2595;53.584;10.084;2022-08-01T07:01:33;19.40;99.90
5154;DHT22;2595;53.584;10.084;2022-08-01T07:03:58;19.40;99.90
5154;DHT22;2595;53.584;10.084;2022-08-01T07:06:25;19.40;99.90
5154;DHT22;2595;53.584;10.084;2022-08-01T07:08:51;19.40;99.90
5154;DHT22;2595;53.584;10.084;2022-08-01T07:11:17;19.40;99.90
5154;DHT22;2595;53.584;10.084;2022-08-01T07:13:43;19.40;99.90
5154;DHT22;2595;53.584;10.084;2022-08-01T07:16:11;19.40;99.90
5154;DHT22;2595;53.584;10.084;2022-08-01T07:18:37;19.40;99.90
5154;DHT22;2595;53.584;10.084;2022-08-01T07:21:03;19.40;99.90
5154;DHT22;2595;53.584;10.084;2022-08-01T07:23:28;19.40;99.90
5154;DHT22;2595;53.584;10.084;2022-08-01T07:25:54;19.40;99.90
5154;DHT22;2595;53.584;10.084;2022-08-01T07:28:19;19.40;99.90
5154;DHT22;2595;53.584;10.084;2022-08-01T07:30:45;19.30;99.90
5154;DHT22;2595;53.584;10.084;2022-08-01T07:33:11;19.30;99.90
5154;DHT22;2595;53.584;10.084;2022-08-01T07:35:37;19.30;99.90
5154;DHT22;2595;53.584;10.084;2022-08-01T07:38:05;19.30;99.90
5154;DHT22;2595;53.584;10.084;2022-08-01T07:40:31;19.20;99.90
5154;DHT22;2595;53.584;10.084;2022-08-01T07:42:57;19.20;99.90
5154;DHT22;2595;53.584;10.084;2022-08-01T07:45:22;19.30;99.90
5154;DHT22;2595;53.584;10.084;2022-08-01T07:47:48;19.30;99.90
5154;DHT22;2595;53.584;10.084;2022-08-01T07:50:15;19.30;99.90
5154;DHT22;2595;53.584;10.084;2022-08-01T07:52:42;19.30;99.90
5154;DHT22;2595;53.584;10.084;2022-08-01T07:55:09;19.30;99.90
5154;DHT22;2595;53.584;10.084;2022-08-01T07:57:35;19.30;99.90
5154;DHT22;2595;53.584;10.084;2022-08-01T08:00:01;19.30;99.90
5154;DHT22;2595;53.584;10.084;2022-08-01T08:02:27;19.30;99.90
5154;DHT22;2595;53.584;10.084;2022-08-01T08:04:52;19.30;99.90
5154;DHT22;2595;53.584;10.084;2022-08-01T08:07:18;19.30;99.90
5154;DHT22;2595;53.584;10.084;2022-08-01T08:09:43;19.30;99.90
5154;DHT22;2595;53.584;10.084;2022-08-01T08:12:09;19.30;99.90
5154;DHT22;2595;53.584;10.084;2022-08-01T08:14:35;19.30;99.90
5154;DHT22;2595;53.584;10.084;2022-08-01T08:17:01;19.30;99.90
5154;DHT22;2595;53.584;10.084;2022-08-01T08:19:27;19.30;99.90
5154;DHT22;2595;53.584;10.084;2022-08-01T08:21:52;19.30;99.90
5154;DHT22;2595;53.584;10.084;2022-08-01T08:24:18;19.30;99.90
5154;DHT22;2595;53.584;10.084;2022-08-01T08:26:47;19.30;99.90
5154;DHT22;2595;53.584;10.084;2022-08-01T08:29:13;19.30;99.90
5154;DHT22;2595;53.584;10.084;2022-08-01T08:31:39;19.40;99.90
5154;DHT22;2595;53.584;10.084;2022-08-01T08:34:05;19.40;99.90
5154;DHT22;2595;53.584;10.084;2022-08-01T08:36:30;19.40;99.90
5154;DHT22;2595;53.584;10.084;2022-08-01T08:38:56;19.40;99.90
5154;DHT22;2595;53.584;10.084;2022-08-01T08:41:22;19.40;99.90
5154;DHT22;2595;53.584;10.084;2022-08-01T08:43:48;19.40;99.90
5154;DHT22;2595;53.584;10.084;2022-08-01T08:46:14;19.40;99.90
5154;DHT22;2595;53.584;10.084;2022-08-01T08:48:42;19.30;99.90
5154;DHT22;2595;53.584;10.084;2022-08-01T08:51:08;19.30;99.90
5154;DHT22;2595;53.584;10.084;2022-08-01T08:53:40;19.20;99.90
5154;DHT22;2595;53.584;10.084;2022-08-01T08:56:10;19.30;99.90
5154;DHT22;2595;53.584;10.084;2022-08-01T08:58:37;19.30;99.90
5154;DHT22;2595;53.584;10.084;2022-08-01T09:01:06;19.30;99.90
5154;DHT22;2595;53.584;10.084;2022-08-01T09:03:34;19.30;99.90
5154;DHT22;2595;53.584;10.084;2022-08-01T09:06:00;19.20;99.90
5154;DHT22;2595;53.584;10.084;2022-08-01T09:08:26;19.20;99.90
5154;DHT22;2595;53.584;10.084;2022-08-01T09:10:52;19.20;99.90
5154;DHT22;2595;53.584;10.084;2022-08-01T09:13:17;19.20;99.90
5154;DHT22;2595;53.584;10.084;2022-08-01T09:15:51;19.20;99.90
5154;DHT22;2595;53.584;10.084;2022-08-01T09:18:37;19.30;99.90
5154;DHT22;2595;53.584;10.084;2022-08-01T09:23:39;19.40;99.90
5154;DHT22;2595;53.584;10.084;2022-08-01T09:26:11;19.40;99.90
5154;DHT22;2595;53.584;10.084;2022-08-01T09:28:38;19.50;99.90
5154;DHT22;2595;53.584;10.084;2022-08-01T09:31:12;19.50;99.90
5154;DHT22;2595;53.584;10.084;2022-08-01T09:33:57;19.50;99.90
5154;DHT22;2595;53.584;10.084;2022-08-01T09:36:46;19.50;99.90
5154;DHT22;2595;53.584;10.084;2022-08-01T09:39:17;19.50;99.90
5154;DHT22;2595;53.584;10.084;2022-08-01T09:41:43;19.60;99.90
5154;DHT22;2595;53.584;10.084;2022-08-01T09:44:08;19.60;99.90
5154;DHT22;2595;53.584;10.084;2022-08-01T09:46:34;19.60;99.90
5154;DHT22;2595;53.584;10.084;2022-08-01T09:49:04;19.70;99.90
5154;DHT22;2595;53.584;10.084;2022-08-01T09:51:35;19.70;99.90
5154;DHT22;2595;53.584;10.084;2022-08-01T09:54:03;19.70;99.90
5154;DHT22;2595;53.584;10.084;2022-08-01T09:56:39;19.80;99.90
5154;DHT22;2595;53.584;10.084;2022-08-01T09:59:08;19.80;99.90
5154;DHT22;2595;53.584;10.084;2022-08-01T10:01:49;19.80;99.90
5154;DHT22;2595;53.584;10.084;2022-08-01T10:04:19;19.80;99.90
5154;DHT22;2595;53.584;10.084;2022-08-01T10:06:46;19.90;99.90
5154;DHT22;2595;53.584;10.084;2022-08-01T10:09:14;19.90;99.90
5154;DHT22;2595;53.584;10.084;2022-08-01T10:11:42;19.90;99.90
5154;DHT22;2595;53.584;10.084;2022-08-01T10:14:08;19.90;99.90
5154;DHT22;2595;53.584;10.084;2022-08-01T10:16:38;20.00;99.90
5154;DHT22;2595;53.584;10.084;2022-08-01T10:19:06;20.00;99.90
5154;DHT22;2595;53.584;10.084;2022-08-01T10:21:33;20.10;99.90
5154;DHT22;2595;53.584;10.084;2022-08-01T10:24:01;20.20;99.90
5154;DHT22;2595;53.584;10.084;2022-08-01T10:26:29;20.20;99.90
5154;DHT22;2595;53.584;10.084;2022-08-01T10:28:57;20.30;99.90
5154;DHT22;2595;53.584;10.084;2022-08-01T10:31:23;20.40;99.90
5154;DHT22;2595;53.584;10.084;2022-08-01T10:33:50;20.40;99.90
5154;DHT22;2595;53.584;10.084;2022-08-01T10:36:20;20.50;99.90
5154;DHT22;2595;53.584;10.084;2022-08-01T10:38:47;20.60;99.90
5154;DHT22;2595;53.584;10.084;2022-08-01T10:41:13;20.60;99.90
5154;DHT22;2595;53.584;10.084;2022-08-01T10:43:41;20.70;99.90
5154;DHT22;2595;53.584;10.084;2022-08-01T10:46:07;20.80;99.90
5154;DHT22;2595;53.584;10.084;2022-08-01T10:48:57;21.00;99.90
5154;DHT22;2595;53.584;10.084;2022-08-01T10:51:21;21.60;99.90
5154;DHT22;2595;53.584;10.084;2022-08-01T10:53:51;22.90;99.90
5154;DHT22;2595;53.584;10.084;2022-08-01T10:56:17;24.30;99.90
5154;DHT22;2595;53.584;10.084;2022-08-01T10:58:43;25.50;99.90
5154;DHT22;2595;53.584;10.084;2022-08-01T11:01:29;26.10;99.90
5154;DHT22;2595;53.584;10.084;2022-08-01T11:04:02;26.30;99.90
5154;DHT22;2595;53.584;10.084;2022-08-01T11:09:05;25.60;99.90
5154;DHT22;2595;53.584;10.084;2022-08-01T11:14:31;24.70;99.90
5154;DHT22;2595;53.584;10.084;2022-08-01T11:17:35;24.50;99.90
5154;DHT22;2595;53.584;10.084;2022-08-01T11:30:52;23.10;99.90
5154;DHT22;2595;53.584;10.084;2022-08-01T11:33:47;22.90;99.90
5154;DHT22;2595;53.584;10.084;2022-08-01T11:38:40;22.70;99.90
5154;DHT22;2595;53.584;10.084;2022-08-01T11:41:28;22.70;99.90
5154;DHT22;2595;53.584;10.084;2022-08-01T11:44:17;22.70;99.90
5154;DHT22;2595;53.584;10.084;2022-08-01T11:46:48;22.70;99.90
5154;DHT22;2595;53.584;10.084;2022-08-01T11:49:43;22.70;99.90
5154;DHT22;2595;53.584;10.084;2022-08-01T11:54:45;22.70;99.90
5154;DHT22;2595;53.584;10.084;2022-08-01T11:57:16;22.70;99.90
5154;DHT22;2595;53.584;10.084;2022-08-01T11:59:45;22.80;99.90
5154;DHT22;2595;53.584;10.084;2022-08-01T12:02:23;22.80;99.90
5154;DHT22;2595;53.584;10.084;2022-08-01T12:04:54;22.80;99.90
5154;DHT22;2595;53.584;10.084;2022-08-01T12:07:21;22.80;99.90
5154;DHT22;2595;53.584;10.084;2022-08-01T12:09:47;22.90;99.90
5154;DHT22;2595;53.584;10.084;2022-08-01T12:12:17;22.80;99.90
5154;DHT22;2595;53.584;10.084;2022-08-01T12:14:45;22.90;99.90
5154;DHT22;2595;53.584;10.084;2022-08-01T12:17:11;22.90;99.90
5154;DHT22;2595;53.584;10.084;2022-08-01T12:19:37;22.90;99.90
5154;DHT22;2595;53.584;10.084;2022-08-01T12:24:30;23.00;99.90
5154;DHT22;2595;53.584;10.084;2022-08-01T12:26:56;23.00;99.90
5154;DHT22;2595;53.584;10.084;2022-08-01T12:29:41;23.10;99.90
5154;DHT22;2595;53.584;10.084;2022-08-01T12:32:24;23.10;99.90
5154;DHT22;2595;53.584;10.084;2022-08-01T12:34:52;23.20;99.90
5154;DHT22;2595;53.584;10.084;2022-08-01T12:37:18;23.20;99.90
5154;DHT22;2595;53.584;10.084;2022-08-01T12:39:45;23.20;99.90
5154;DHT22;2595;53.584;10.084;2022-08-01T12:42:11;23.30;99.90
5154;DHT22;2595;53.584;10.084;2022-08-01T12:44:38;23.20;99.90
5154;DHT22;2595;53.584;10.084;2022-08-01T12:47:06;23.20;99.90
5154;DHT22;2595;53.584;10.084;2022-08-01T12:49:38;23.30;99.90
5154;DHT22;2595;53.584;10.084;2022-08-01T12:52:05;23.30;99.90
5154;DHT22;2595;53.584;10.084;2022-08-01T12:54:43;23.30;99.90
5154;DHT22;2595;53.584;10.084;2022-08-01T12:57:23;23.30;99.90
5154;DHT22;2595;53.584;10.084;2022-08-01T12:59:52;23.40;99.90
5154;DHT22;2595;53.584;10.084;2022-08-01T13:02:18;23.50;99.90
5154;DHT22;2595;53.584;10.084;2022-08-01T13:04:53;23.50;99.90
5154;DHT22;2595;53.584;10.084;2022-08-01T13:07:18;23.50;99.90
5154;DHT22;2595;53.584;10.084;2022-08-01T13:09:51;23.50;99.90
5154;DHT22;2595;53.584;10.084;2022-08-01T13:12:16;23.50;99.90
5154;DHT22;2595;53.584;10.084;2022-08-01T13:14:42;23.50;99.90
5154;DHT22;2595;53.584;10.084;2022-08-01T13:17:08;23.50;99.90
5154;DHT22;2595;53.584;10.084;2022-08-01T13:19:44;23.60;99.90
5154;DHT22;2595;53.584;10.084;2022-08-01T13:22:09;23.60;99.90
5154;DHT22;2595;53.584;10.084;2022-08-01T13:24:35;23.50;99.90
5154;DHT22;2595;53.584;10.084;2022-08-01T13:27:03;23.40;99.90
5154;DHT22;2595;53.584;10.084;2022-08-01T13:29:38;23.30;99.90
5154;DHT22;2595;53.584;10.084;2022-08-01T13:32:19;23.30;99.90
5154;DHT22;2595;53.584;10.084;2022-08-01T13:34:45;23.20;99.90
5154;DHT22;2595;53.584;10.084;2022-08-01T13:37:10;23.30;99.90
5154;DHT22;2595;53.584;10.084;2022-08-01T13:39:36;23.30;99.90
5154;DHT22;2595;53.584;10.084;2022-08-01T13:42:14;23.30;99.90
5154;DHT22;2595;53.584;10.084;2022-08-01T13:44:40;23.30;99.90
5154;DHT22;2595;53.584;10.084;2022-08-01T13:47:06;23.30;99.90
5154;DHT22;2595;53.584;10.084;2022-08-01T13:49:32;23.30;99.90
5154;DHT22;2595;53.584;10.084;2022-08-01T13:51:59;23.30;99.90
5154;DHT22;2595;53.584;10.084;2022-08-01T13:54:25;23.30;99.90
5154;DHT22;2595;53.584;10.084;2022-08-01T13:56:51;23.40;99.90
5154;DHT22;2595;53.584;10.084;2022-08-01T13:59:17;23.30;99.90
5154;DHT22;2595;53.584;10.084;2022-08-01T14:01:43;23.40;99.70
5154;DHT22;2595;53.584;10.084;2022-08-01T14:04:08;23.40;99.90
5154;DHT22;2595;53.584;10.084;2022-08-01T14:06:34;23.40;99.90
5154;DHT22;2595;53.584;10.084;2022-08-01T14:09:03;23.50;99.90
5154;DHT22;2595;53.584;10.084;2022-08-01T14:11:29;23.50;99.70
5154;DHT22;2595;53.584;10.084;2022-08-01T14:13:55;23.50;99.90
5154;DHT22;2595;53.584;10.084;2022-08-01T14:16:20;23.50;99.90
5154;DHT22;2595;53.584;10.084;2022-08-01T14:18:46;23.40;99.90
5154;DHT22;2595;53.584;10.084;2022-08-01T14:21:12;23.40;98.70
5154;DHT22;2595;53.584;10.084;2022-08-01T14:23:38;23.40;99.30
5154;DHT22;2595;53.584;10.084;2022-08-01T14:26:04;23.40;99.90
5154;DHT22;2595;53.584;10.084;2022-08-01T14:28:29;23.40;99.70
5154;DHT22;2595;53.584;10.084;2022-08-01T14:30:56;23.40;99.90
5154;DHT22;2595;53.584;10.084;2022-08-01T14:33:22;23.40;99.30
5154;DHT22;2595;53.584;10.084;2022-08-01T14:35:48;23.40;99.30
5154;DHT22;2595;53.584;10.084;2022-08-01T14:38:14;23.30;99.40
5154;DHT22;2595;53.584;10.084;2022-08-01T14:40:39;23.30;99.30
5154;DHT22;2595;53.584;10.084;2022-08-01T14:43:08;23.30;98.90
5154;DHT22;2595;53.584;10.084;2022-08-01T14:45:34;23.30;99.10
5154;DHT22;2595;53.584;10.084;2022-08-01T14:48:00;23.30;99.20
5154;DHT22;2595;53.584;10.084;2022-08-01T14:50:26;23.30;99.20
5154;DHT22;2595;53.584;10.084;2022-08-01T14:52:53;23.30;99.80
5154;DHT22;2595;53.584;10.084;2022-08-01T14:55:19;23.20;99.60
5154;DHT22;2595;53.584;10.084;2022-08-01T14:57:49;23.20;99.80
5154;DHT22;2595;53.584;10.084;2022-08-01T15:00:15;23.30;99.90
5154;DHT22;2595;53.584;10.084;2022-08-01T15:02:41;23.30;99.90
5154;DHT22;2595;53.584;10.084;2022-08-01T15:05:07;23.20;99.90
5154;DHT22;2595;53.584;10.084;2022-08-01T15:07:33;23.10;99.60
5154;DHT22;2595;53.584;10.084;2022-08-01T15:09:59;23.20;99.90
5154;DHT22;2595;53.584;10.084;2022-08-01T15:12:25;23.20;99.90
5154;DHT22;2595;53.584;10.084;2022-08-01T15:14:50;23.10;99.90
5154;DHT22;2595;53.584;10.084;2022-08-01T15:17:25;23.10;99.90
5154;DHT22;2595;53.584;10.084;2022-08-01T15:19:52;23.10;99.90
5154;DHT22;2595;53.584;10.084;2022-08-01T15:22:19;23.10;99.90
5154;DHT22;2595;53.584;10.084;2022-08-01T15:24:47;23.10;99.90
5154;DHT22;2595;53.584;10.084;2022-08-01T15:27:13;23.10;99.90
5154;DHT22;2595;53.584;10.084;2022-08-01T15:29:39;23.10;99.90
5154;DHT22;2595;53.584;10.084;2022-08-01T15:32:05;23.00;99.90
5154;DHT22;2595;53.584;10.084;2022-08-01T15:34:32;23.00;99.90
5154;DHT22;2595;53.584;10.084;2022-08-01T15:36:58;22.80;99.90
5154;DHT22;2595;53.584;10.084;2022-08-01T15:39:24;22.70;99.90
5154;DHT22;2595;53.584;10.084;2022-08-01T15:41:50;22.60;99.90
5154;DHT22;2595;53.584;10.084;2022-08-01T15:44:16;22.60;99.90
5154;DHT22;2595;53.584;10.084;2022-08-01T15:46:47;22.50;99.90
5154;DHT22;2595;53.584;10.084;2022-08-01T15:49:13;22.40;99.90
5154;DHT22;2595;53.584;10.084;2022-08-01T15:51:40;22.40;99.90
5154;DHT22;2595;53.584;10.084;2022-08-01T15:54:06;22.40;99.90
5154;DHT22;2595;53.584;10.084;2022-08-01T15:56:32;22.30;99.90
5154;DHT22;2595;53.584;10.084;2022-08-01T15:58:59;22.30;99.90
5154;DHT22;2595;53.584;10.084;2022-08-01T16:01:24;22.20;99.90
5154;DHT22;2595;53.584;10.084;2022-08-01T16:03:53;22.10;99.90
5154;DHT22;2595;53.584;10.084;2022-08-01T16:06:19;22.10;99.90
5154;DHT22;2595;53.584;10.084;2022-08-01T16:08:45;22.10;99.90
5154;DHT22;2595;53.584;10.084;2022-08-01T16:11:11;22.00;99.90
5154;DHT22;2595;53.584;10.084;2022-08-01T16:13:36;22.00;99.90
5154;DHT22;2595;53.584;10.084;2022-08-01T16:16:02;22.00;99.90
5154;DHT22;2595;53.584;10.084;2022-08-01T16:18:29;21.90;99.90
5154;DHT22;2595;53.584;10.084;2022-08-01T16:20:56;21.90;99.90
5154;DHT22;2595;53.584;10.084;2022-08-01T16:23:23;21.90;99.90
5154;DHT22;2595;53.584;10.084;2022-08-01T16:25:50;21.80;99.90